Time;durP1;ratioP1;P1;durP2;ratioP2;P2;SDS_P1;SDS_P2;PMS_P1;PMS_P2;Temp;Humidity;BMP_temperature;BMP_pressure;BME280_temperature;BME280_humidity;BME280_pressure;Samples;Min_cycle;Max_cycle;Signal;HPM_P1;HPM_P2
2024/02/01 00:03:02;;;;;;;21.20;19.60;;;6.30;99.90;;;;;;12599864;28;20056;-76
2024/02/01 00:09:03;;;;;;;21.42;19.42;;;6.20;99.90;;;;;;12597906;28;20106;-79
2024/02/01 00:15:06;;;;;;;22.77;20.60;;;6.30;99.90;;;;;;12612564;28;20056;-81
2024/02/01 00:21:08;;;;;;;24.58;22.35;;;6.20;99.90;;;;;;12610116;28;20044;-82
2024/02/01 00:27:09;;;;;;;31.25;28.92;;;6.10;99.90;;;;;;12600430;28;20048;-81
2024/02/01 00:33:11;;;;;;;52.10;48.63;;;6.00;99.90;;;;;;12614834;28;20529;-76
2024/02/01 00:39:13;;;;;;;74.53;69.90;;;5.90;99.90;;;;;;12597024;28;20047;-77
2024/02/01 00:45:16;;;;;;;79.93;75.20;;;5.80;99.90;;;;;;12629964;28;20056;-79
2024/02/01 00:51:18;;;;;;;83.25;78.25;;;5.70;99.90;;;;;;12602022;28;20043;-78
2024/02/01 00:57:19;;;;;;;81.45;76.18;;;5.70;99.90;;;;;;12636400;28;20106;-78
2024/02/01 01:03:21;;;;;;;84.85;79.68;;;5.60;99.90;;;;;;12611359;28;20052;-78
2024/02/01 01:09:24;;;;;;;89.65;84.35;;;5.60;99.90;;;;;;12618376;28;20044;-77
2024/02/01 01:15:25;;;;;;;85.32;80.18;;;5.60;99.90;;;;;;12633356;28;20063;-78
2024/02/01 01:21:28;;;;;;;81.38;76.50;;;5.60;99.90;;;;;;12592796;28;20049;-77
2024/02/01 01:27:30;;;;;;;86.03;80.75;;;5.60;99.90;;;;;;12616566;28;20442;-78
2024/02/01 01:33:34;;;;;;;82.47;77.25;;;5.60;99.90;;;;;;12623755;28;20135;-79
2024/02/01 01:39:36;;;;;;;89.03;83.53;;;5.60;99.90;;;;;;12616391;28;20048;-78
2024/02/01 01:45:38;;;;;;;91.20;85.15;;;5.70;99.90;;;;;;12616315;28;20044;-79
2024/02/01 01:51:40;;;;;;;86.47;81.07;;;5.60;99.90;;;;;;12621612;28;20084;-78
2024/02/01 01:57:43;;;;;;;88.40;82.90;;;5.60;99.90;;;;;;12526497;28;20060;-78
2024/02/01 02:03:47;;;;;;;82.43;77.43;;;5.60;99.90;;;;;;12516064;28;20532;-77
2024/02/01 02:09:49;;;;;;;84.45;79.15;;;5.60;99.90;;;;;;12528216;28;20118;-77
2024/02/01 02:15:51;;;;;;;84.50;79.43;;;5.60;99.90;;;;;;12529226;28;20053;-77
2024/02/01 02:21:54;;;;;;;91.97;86.28;;;5.60;99.90;;;;;;12543819;28;20061;-78
2024/02/01 02:27:56;;;;;;;90.15;84.63;;;5.70;99.90;;;;;;12521713;28;20489;-78
2024/02/01 02:33:59;;;;;;;98.45;92.47;;;5.70;99.90;;;;;;12505106;28;20061;-78
2024/02/01 02:40:02;;;;;;;99.43;93.55;;;5.80;99.90;;;;;;12520033;28;20061;-78
2024/02/01 02:46:04;;;;;;;109.85;103.57;;;5.80;99.90;;;;;;12522237;28;20060;-79
2024/02/01 02:52:05;;;;;;;187.80;177.35;;;5.90;99.90;;;;;;12510683;28;20080;-77
2024/02/01 02:58:07;;;;;;;200.10;189.35;;;5.90;99.90;;;;;;12497594;28;20096;-77
2024/02/01 03:04:09;;;;;;;205.95;195.10;;;6.00;99.90;;;;;;12493360;28;20516;-78
2024/02/01 03:10:12;;;;;;;203.98;192.63;;;6.00;99.90;;;;;;12527568;28;20053;-79
2024/02/01 03:16:23;;;;;;;201.60;190.90;;;6.00;99.90;;;;;;12494903;28;20057;-78
2024/02/01 03:22:25;;;;;;;213.75;202.50;;;6.00;99.90;;;;;;12498089;28;20053;-77
2024/02/01 03:28:30;;;;;;;230.73;218.52;;;6.10;99.90;;;;;;12520201;28;20053;-80
2024/02/01 03:34:32;;;;;;;;;;;6.20;99.90;;;;;;12501163;28;20049;-80
2024/02/01 03:40:38;;;;;;;235.25;223.10;;;6.30;99.90;;;;;;12506856;28;19936;-80
2024/02/01 03:46:41;;;;;;;285.85;271.13;;;6.40;99.90;;;;;;12501767;28;20057;-80
2024/02/01 03:52:43;;;;;;;181.18;171.77;;;6.50;99.90;;;;;;12526855;28;20381;-80
2024/02/01 03:58:45;;;;;;;197.60;187.48;;;6.60;99.90;;;;;;12604519;28;20072;-81
2024/02/01 04:04:48;;;;;;;199.10;188.93;;;6.60;99.90;;;;;;12638586;28;20166;-80
2024/02/01 04:10:51;;;;;;;189.90;180.17;;;6.60;99.90;;;;;;12613147;28;20134;-81
2024/02/01 04:16:55;;;;;;;192.02;182.13;;;6.70;99.90;;;;;;12631474;28;20051;-80
2024/02/01 04:22:57;;;;;;;198.30;188.18;;;6.70;99.90;;;;;;12611700;28;20056;-80
2024/02/01 04:28:59;;;;;;;194.75;184.85;;;6.70;99.90;;;;;;12619647;28;20048;-79
2024/02/01 04:35:04;;;;;;;205.18;194.88;;;6.70;99.90;;;;;;12618846;28;20059;-81
2024/02/01 04:41:07;;;;;;;217.13;206.20;;;6.70;99.90;;;;;;12614492;28;20057;-79
2024/02/01 04:47:09;;;;;;;216.40;205.40;;;6.80;99.90;;;;;;12619748;28;20053;-80
2024/02/01 04:53:11;;;;;;;207.82;197.43;;;6.80;99.90;;;;;;12618996;28;20062;-81
2024/02/01 04:59:13;;;;;;;204.60;194.43;;;6.80;99.90;;;;;;12620916;28;20506;-79
2024/02/01 05:05:16;;;;;;;202.77;192.57;;;6.90;99.90;;;;;;12611937;28;20924;-81
2024/02/01 05:11:18;;;;;;;187.35;177.77;;;6.90;99.90;;;;;;12641797;28;20052;-80
2024/02/01 05:17:20;;;;;;;188.48;178.60;;;6.80;99.90;;;;;;12618429;28;20071;-80
2024/02/01 05:23:22;;;;;;;175.82;166.60;;;6.80;99.90;;;;;;12600887;28;20055;-80
2024/02/01 05:29:25;;;;;;;179.00;169.50;;;6.80;99.90;;;;;;12603372;28;20052;-80
2024/02/01 05:35:29;;;;;;;175.32;166.07;;;6.80;99.90;;;;;;12621604;28;20064;-80
2024/02/01 05:41:31;;;;;;;165.48;156.80;;;6.80;99.90;;;;;;12604344;28;20048;-80
2024/02/01 05:47:33;;;;;;;163.38;154.75;;;6.60;99.90;;;;;;12594076;28;20049;-81
2024/02/01 05:53:36;;;;;;;138.13;131.00;;;6.60;99.90;;;;;;12612533;28;20060;-78
2024/02/01 05:59:39;;;;;;;119.37;113.13;;;6.50;99.90;;;;;;12583923;28;20135;-79
2024/02/01 06:05:41;;;;;;;118.57;112.00;;;6.50;99.90;;;;;;12633796;28;20079;-78
2024/02/01 06:11:45;;;;;;;97.45;92.18;;;6.40;99.90;;;;;;12613842;28;20177;-79
2024/02/01 06:17:47;;;;;;;91.30;85.90;;;6.30;99.90;;;;;;12612407;28;20044;-78
2024/02/01 06:23:49;;;;;;;95.28;90.10;;;6.20;99.90;;;;;;12597952;28;20185;-79
2024/02/01 06:29:51;;;;;;;102.00;96.18;;;6.10;99.90;;;;;;12597378;28;20511;-78
2024/02/01 06:35:54;;;;;;;106.93;101.55;;;5.90;99.90;;;;;;12616626;28;20055;-79
2024/02/01 06:42:04;;;;;;;93.20;88.25;;;5.80;99.90;;;;;;12603203;28;20128;-78
2024/02/01 06:48:09;;;;;;;68.07;63.88;;;5.80;99.90;;;;;;12595369;28;20552;-79
2024/02/01 06:54:28;;;;;;;68.55;64.72;;;5.80;99.90;;;;;;12605395;28;20052;-78
2024/02/01 07:00:50;;;;;;;77.43;73.05;;;5.80;99.90;;;;;;12603513;28;20067;-82
2024/02/01 07:13:22;;;;;;;62.35;58.65;;;5.50;99.90;;;;;;12635714;28;20435;-82
2024/02/01 07:19:39;;;;;;;60.63;56.83;;;5.40;99.90;;;;;;12612315;28;20090;-82
2024/02/01 07:26:00;;;;;;;50.17;46.95;;;5.30;99.90;;;;;;12611679;28;20131;-82
2024/02/01 08:04:12;;;;;;;48.03;44.33;;;5.30;99.90;;;;;;12613185;28;20090;-81
2024/02/01 08:10:19;;;;;;;49.35;45.83;;;5.30;99.90;;;;;;12609818;28;20040;-80
2024/02/01 08:16:22;;;;;;;45.83;41.80;;;5.30;99.90;;;;;;12637594;28;20048;-81
2024/02/01 08:22:23;;;;;;;43.90;40.08;;;5.40;99.90;;;;;;12630486;28;20056;-80
2024/02/01 08:28:32;;;;;;;35.03;31.55;;;5.30;99.90;;;;;;12611295;28;20052;-79
2024/02/01 08:34:38;;;;;;;35.55;32.28;;;5.40;99.90;;;;;;12618718;28;20048;-79
2024/02/01 08:40:41;;;;;;;32.58;29.55;;;5.50;99.90;;;;;;12636732;28;20058;-80
2024/02/01 08:46:43;;;;;;;33.72;31.15;;;5.60;99.90;;;;;;12627615;28;20048;-79
2024/02/01 08:52:48;;;;;;;34.05;31.00;;;5.60;99.90;;;;;;12637929;28;20056;-79
2024/02/01 08:58:50;;;;;;;36.25;33.03;;;5.70;99.90;;;;;;12644409;28;20115;-81
2024/02/01 09:04:53;;;;;;;31.95;28.73;;;5.70;99.90;;;;;;12628567;28;20053;-80
2024/02/01 09:10:57;;;;;;;31.98;28.88;;;5.70;99.90;;;;;;12654252;28;20076;-79
2024/02/01 09:17:00;;;;;;;;;;;5.80;99.90;;;;;;12641467;28;20055;-80
2024/02/01 09:23:03;;;;;;;31.55;28.77;;;5.70;99.90;;;;;;12630109;28;19930;-80
2024/02/01 09:29:11;;;;;;;35.25;31.80;;;5.70;99.90;;;;;;12661892;28;20044;-78
2024/02/01 09:35:13;;;;;;;34.65;31.60;;;5.80;99.90;;;;;;12630777;28;20052;-79
2024/02/01 09:41:15;;;;;;;38.40;34.80;;;5.80;99.90;;;;;;12640383;28;20063;-79
2024/02/01 09:47:19;;;;;;;31.95;28.95;;;5.60;99.90;;;;;;12647367;28;20062;-77
2024/02/01 09:53:26;;;;;;;32.38;29.50;;;5.60;99.90;;;;;;12626045;28;20056;-77
2024/02/01 09:59:35;;;;;;;35.60;32.05;;;5.90;99.90;;;;;;12644036;28;20043;-79
2024/02/01 10:05:37;;;;;;;35.50;32.00;;;6.00;99.90;;;;;;12660126;28;20048;-77
2024/02/01 10:11:39;;;;;;;38.13;34.22;;;6.10;99.90;;;;;;12640693;28;20048;-77
2024/02/01 10:17:47;;;;;;;39.55;35.72;;;6.20;99.90;;;;;;12629606;28;20052;-78
2024/02/01 10:23:49;;;;;;;39.47;35.80;;;6.20;99.90;;;;;;12595062;28;20052;-80
2024/02/01 10:29:51;;;;;;;39.75;36.10;;;6.20;99.90;;;;;;12594656;28;20075;-79
2024/02/01 10:35:54;;;;;;;42.90;38.72;;;6.20;99.90;;;;;;12576477;28;20059;-83
2024/02/01 10:42:03;;;;;;;42.03;38.85;;;6.30;99.90;;;;;;12583055;28;20424;-81
2024/02/01 10:48:10;;;;;;;42.15;38.92;;;6.40;99.90;;;;;;12559481;28;20072;-81
2024/02/01 10:54:13;;;;;;;37.97;34.83;;;6.30;99.90;;;;;;12568087;28;20068;-81
2024/02/01 11:00:21;;;;;;;39.45;36.25;;;6.30;99.90;;;;;;12594687;28;20075;-82
2024/02/01 11:06:25;;;;;;;39.00;35.65;;;6.50;99.90;;;;;;12586583;28;20057;-81
2024/02/01 11:12:28;;;;;;;50.20;46.93;;;6.90;99.90;;;;;;12613399;28;20057;-82
2024/02/01 11:19:19;;;;;;;46.28;42.78;;;6.80;99.90;;;;;;12585475;28;20291;-82
2024/02/01 11:25:28;;;;;;;35.20;32.30;;;6.50;99.90;;;;;;12609330;28;20068;-81
2024/02/01 11:31:31;;;;;;;33.28;30.45;;;6.70;99.90;;;;;;12594484;28;20051;-83
2024/02/01 11:37:54;;;;;;;41.28;37.95;;;6.80;99.90;;;;;;12599205;28;20056;-83
2024/02/01 11:44:00;;;;;;;36.47;32.60;;;6.90;99.90;;;;;;12590263;28;20157;-80
2024/02/01 11:50:03;;;;;;;34.13;31.35;;;7.20;99.90;;;;;;12594581;28;20049;-80
2024/02/01 11:56:06;;;;;;;42.95;39.80;;;7.50;99.90;;;;;;12612774;28;20052;-81
2024/02/01 12:02:08;;;;;;;50.42;46.25;;;7.80;99.90;;;;;;12591800;28;20094;-80
2024/02/01 12:08:11;;;;;;;41.38;38.00;;;8.10;99.90;;;;;;12612450;28;20110;-79
2024/02/01 12:14:17;;;;;;;41.35;37.75;;;7.90;99.90;;;;;;12587896;28;20055;-80
2024/02/01 12:20:20;;;;;;;43.67;40.58;;;7.90;99.90;;;;;;12610693;28;20060;-80
2024/02/01 12:26:25;;;;;;;38.08;35.40;;;7.70;99.90;;;;;;12599591;28;20472;-80
2024/02/01 12:32:30;;;;;;;36.08;33.05;;;7.70;99.90;;;;;;12595374;28;20071;-80
2024/02/01 12:38:41;;;;;;;32.22;29.55;;;7.40;99.90;;;;;;12606320;28;20124;-81
2024/02/01 12:44:44;;;;;;;31.67;29.30;;;7.50;99.90;;;;;;12616127;28;20048;-84
2024/02/01 12:50:46;;;;;;;31.15;28.38;;;7.60;99.90;;;;;;12610383;28;20071;-82
2024/02/01 12:56:48;;;;;;;32.65;29.73;;;7.60;99.90;;;;;;12591420;28;20052;-81
2024/02/01 13:02:50;;;;;;;26.88;24.85;;;7.40;99.90;;;;;;12566097;28;20052;-80
2024/02/01 13:08:52;;;;;;;26.83;24.33;;;7.20;99.90;;;;;;12569857;28;20071;-82
2024/02/01 13:15:00;;;;;;;26.55;23.73;;;7.10;99.90;;;;;;12581342;28;20394;-80
2024/02/01 13:21:03;;;;;;;26.33;24.10;;;6.90;99.90;;;;;;12562125;28;20060;-83
2024/02/01 13:27:11;;;;;;;24.52;22.50;;;6.90;99.90;;;;;;12570573;28;20056;-83
2024/02/01 13:33:13;;;;;;;28.73;26.63;;;7.10;99.90;;;;;;12575011;28;20110;-81
2024/02/01 13:39:16;;;;;;;22.75;20.15;;;7.00;99.90;;;;;;12564790;28;20076;-81
2024/02/01 13:45:19;;;;;;;28.65;26.02;;;7.20;99.90;;;;;;12597532;28;20145;-81
2024/02/01 13:51:21;;;;;;;24.98;22.63;;;7.50;99.90;;;;;;12580217;28;20094;-81
2024/02/01 13:57:23;;;;;;;31.95;26.63;;;7.60;99.90;;;;;;12616566;28;20074;-82
2024/02/01 14:03:25;;;;;;;30.10;27.15;;;7.50;99.90;;;;;;12607343;28;20048;-79
2024/02/01 14:09:28;;;;;;;30.45;27.98;;;7.40;99.90;;;;;;12649004;28;20086;-81
2024/02/01 14:15:30;;;;;;;28.60;26.33;;;7.40;99.90;;;;;;12627486;28;20063;-80
2024/02/01 14:21:32;;;;;;;22.77;21.00;;;7.40;99.90;;;;;;12651307;28;20055;-79
2024/02/01 14:27:34;;;;;;;29.08;26.60;;;7.30;99.90;;;;;;12650924;28;20242;-79
2024/02/01 14:33:36;;;;;;;20.70;18.92;;;7.00;99.90;;;;;;12632599;28;20063;-79
2024/02/01 14:39:42;;;;;;;24.02;21.60;;;7.00;99.90;;;;;;12635367;28;20048;-78
2024/02/01 14:45:45;;;;;;;24.30;22.48;;;7.10;99.90;;;;;;12658475;28;20047;-80
2024/02/01 14:51:47;;;;;;;26.08;23.75;;;7.10;99.90;;;;;;12640233;28;20116;-79
2024/02/01 14:57:48;;;;;;;21.83;20.05;;;7.30;99.90;;;;;;12604354;28;20048;-81
2024/02/01 15:03:53;;;;;;;23.20;19.95;;;7.30;99.90;;;;;;12624802;28;20067;-78
2024/02/01 15:09:57;;;;;;;21.10;18.85;;;7.20;99.90;;;;;;12628862;28;20045;-79
2024/02/01 15:15:59;;;;;;;23.70;21.15;;;7.20;99.90;;;;;;12600027;28;20049;-81
2024/02/01 15:22:03;;;;;;;24.48;22.30;;;7.10;99.90;;;;;;12598059;28;20048;-82
2024/02/01 15:28:07;;;;;;;25.45;22.30;;;6.90;99.90;;;;;;12611786;28;20544;-81
2024/02/01 15:34:09;;;;;;;22.40;20.13;;;6.70;99.90;;;;;;12588747;28;20129;-81
2024/02/01 15:40:12;;;;;;;22.60;19.60;;;6.60;99.90;;;;;;12581441;28;20056;-81
2024/02/01 15:46:14;;;;;;;19.40;17.30;;;6.70;99.90;;;;;;12629413;28;20077;-81
2024/02/01 15:52:16;;;;;;;19.77;17.95;;;6.60;99.90;;;;;;12622608;28;20041;-81
2024/02/01 15:58:18;;;;;;;18.83;17.25;;;6.50;99.90;;;;;;12605882;28;20051;-81
2024/02/01 16:04:20;;;;;;;20.92;18.63;;;6.40;99.90;;;;;;12595379;28;20048;-81
2024/02/01 16:10:22;;;;;;;21.10;18.65;;;6.30;99.90;;;;;;12607192;28;20053;-80
2024/02/01 16:16:31;;;;;;;22.58;20.60;;;6.20;99.90;;;;;;12591845;28;20553;-81
2024/02/01 16:22:47;;;;;;;25.33;21.60;;;6.00;99.90;;;;;;12613615;28;20052;-80
2024/02/01 16:28:49;;;;;;;29.35;26.90;;;6.00;99.90;;;;;;12607050;28;20098;-80
2024/02/01 16:34:52;;;;;;;31.27;28.70;;;5.90;99.90;;;;;;12605560;28;20492;-80
2024/02/01 16:40:54;;;;;;;30.65;27.52;;;5.90;99.90;;;;;;12597926;28;20064;-80
2024/02/01 16:46:56;;;;;;;30.88;28.23;;;5.80;99.90;;;;;;12592850;28;20106;-79
2024/02/01 16:53:02;;;;;;;26.27;24.15;;;5.80;99.90;;;;;;12602810;28;20060;-80
2024/02/01 16:59:04;;;;;;;28.63;25.83;;;5.70;99.90;;;;;;12594590;28;20052;-79
2024/02/01 17:05:17;;;;;;;30.83;27.73;;;5.60;99.90;;;;;;12602184;28;20080;-79
2024/02/01 17:11:20;;;;;;;31.77;29.45;;;5.60;99.90;;;;;;12611458;28;20059;-79
2024/02/01 17:17:36;;;;;;;36.47;33.55;;;5.60;99.90;;;;;;12610640;28;20914;-79
2024/02/01 17:23:38;;;;;;;33.47;30.25;;;5.40;99.90;;;;;;12593467;28;20052;-79
2024/02/01 17:29:41;;;;;;;31.88;29.48;;;5.50;99.90;;;;;;12617963;28;20079;-82
2024/02/01 17:35:42;;;;;;;28.38;26.25;;;5.40;99.90;;;;;;12575226;28;20508;-79
2024/02/01 17:41:48;;;;;;;30.52;27.23;;;5.40;99.90;;;;;;12607636;28;20060;-80
2024/02/01 17:48:01;;;;;;;28.77;26.15;;;5.40;99.90;;;;;;12602397;28;20044;-79
2024/02/01 17:54:10;;;;;;;28.92;26.60;;;5.50;99.90;;;;;;12582439;28;20041;-79
2024/02/01 18:00:16;;;;;;;28.98;26.80;;;5.40;99.90;;;;;;12595603;28;20063;-80
2024/02/01 18:06:39;;;;;;;29.50;27.40;;;5.30;99.90;;;;;;12627865;28;20066;-79
2024/02/01 18:12:43;;;;;;;30.25;28.05;;;5.30;99.90;;;;;;12600649;28;20078;-80
2024/02/01 18:18:46;;;;;;;29.93;27.30;;;5.20;99.90;;;;;;12598327;28;20093;-79
2024/02/01 18:24:53;;;;;;;27.92;25.63;;;5.20;99.90;;;;;;12603989;28;20582;-79
2024/02/01 18:30:57;;;;;;;29.15;26.77;;;5.30;99.90;;;;;;12617796;28;21024;-79
2024/02/01 18:36:58;;;;;;;30.80;28.08;;;5.20;99.90;;;;;;12619985;28;20052;-80
2024/02/01 18:43:08;;;;;;;28.85;26.60;;;5.10;99.90;;;;;;12635614;28;20052;-83
2024/02/01 18:49:11;;;;;;;32.50;29.70;;;5.10;99.90;;;;;;12596907;28;20425;-81
2024/02/01 18:55:17;;;;;;;32.73;29.80;;;5.10;99.90;;;;;;12615379;28;20056;-84
2024/02/01 19:01:26;;;;;;;32.55;29.90;;;5.20;99.90;;;;;;12624773;28;20056;-81
2024/02/01 19:07:28;;;;;;;29.50;26.95;;;5.20;99.90;;;;;;12640678;28;20100;-83
2024/02/01 19:14:02;;;;;;;32.60;29.80;;;5.30;99.90;;;;;;12655152;28;20034;-81
2024/02/01 19:20:11;;;;;;;32.63;29.67;;;5.20;99.90;;;;;;12654224;28;20060;-82
2024/02/01 19:26:14;;;;;;;35.17;32.33;;;5.10;99.90;;;;;;12627580;28;20044;-82
2024/02/01 19:32:42;;;;;;;34.42;31.48;;;5.10;99.90;;;;;;12649422;28;20040;-80
2024/02/01 19:38:44;;;;;;;33.42;30.27;;;5.00;99.90;;;;;;12644098;28;20043;-82
2024/02/01 19:44:46;;;;;;;32.28;29.88;;;5.00;99.90;;;;;;12635419;28;20075;-83
2024/02/01 19:50:48;;;;;;;33.67;30.25;;;4.90;99.90;;;;;;12582507;28;20048;-83
2024/02/01 19:56:50;;;;;;;37.35;34.35;;;4.90;99.90;;;;;;12581290;28;20109;-81
2024/02/01 20:02:52;;;;;;;33.35;30.17;;;4.90;99.90;;;;;;12600337;28;20048;-81
2024/02/01 20:08:55;;;;;;;36.42;33.33;;;4.90;99.90;;;;;;12585643;28;20056;-80
2024/02/01 20:14:57;;;;;;;37.47;34.20;;;4.60;99.90;;;;;;12598375;28;20059;-81
2024/02/01 20:21:00;;;;;;;41.55;37.78;;;4.50;99.90;;;;;;12597455;28;20048;-80
2024/02/01 20:27:02;;;;;;;40.38;36.80;;;4.40;99.90;;;;;;12612116;28;20066;-80
2024/02/01 20:33:04;;;;;;;43.53;39.38;;;4.30;99.90;;;;;;12616425;28;20053;-81
2024/02/01 20:39:33;;;;;;;45.08;41.45;;;4.20;99.90;;;;;;12601554;28;20055;-81
2024/02/01 20:45:37;;;;;;;44.92;41.40;;;4.10;99.90;;;;;;12618247;28;20075;-80
2024/02/01 20:52:01;;;;;;;46.27;42.47;;;3.90;99.90;;;;;;12613399;28;20134;-81
2024/02/01 20:58:26;;;;;;;46.05;42.45;;;3.90;99.90;;;;;;12615301;28;20519;-81
2024/02/01 21:04:32;;;;;;;44.42;41.03;;;3.90;99.90;;;;;;12621296;28;20056;-79
2024/02/01 21:10:46;;;;;;;45.88;42.47;;;3.90;99.90;;;;;;12609965;28;20096;-79
2024/02/01 21:16:53;;;;;;;44.63;41.47;;;4.00;99.90;;;;;;12620618;28;20074;-80
2024/02/01 21:22:55;;;;;;;43.17;40.05;;;4.00;99.90;;;;;;12600006;28;20060;-79
2024/02/01 21:29:07;;;;;;;55.53;51.33;;;3.90;99.90;;;;;;12585776;28;20060;-79
2024/02/01 21:35:44;;;;;;;55.13;51.00;;;3.80;99.90;;;;;;12604022;28;20544;-79
2024/02/01 21:41:46;;;;;;;51.58;47.53;;;3.70;99.90;;;;;;12609817;28;20884;-79
2024/02/01 21:47:50;;;;;;;48.67;45.25;;;3.70;99.90;;;;;;12597385;28;20092;-79
2024/02/01 21:53:52;;;;;;;45.93;42.60;;;3.70;99.90;;;;;;12598251;28;20049;-79
2024/02/01 21:59:57;;;;;;;45.42;41.42;;;3.80;99.90;;;;;;12591604;28;20075;-78
2024/02/01 22:05:59;;;;;;;45.40;42.03;;;3.90;99.90;;;;;;12600197;28;20430;-79
2024/02/01 22:12:01;;;;;;;45.70;42.25;;;4.10;99.90;;;;;;12599046;28;20134;-79
2024/02/01 22:18:03;;;;;;;49.65;45.40;;;4.20;99.90;;;;;;12584561;28;20063;-79
2024/02/01 22:24:06;;;;;;;51.95;48.20;;;4.20;99.90;;;;;;12585753;28;20049;-79
2024/02/01 22:30:08;;;;;;;54.58;50.55;;;4.30;99.90;;;;;;12602772;28;20489;-79
2024/02/01 22:36:10;;;;;;;55.08;51.45;;;4.30;99.90;;;;;;12592570;28;20062;-80
2024/02/01 22:42:13;;;;;;;56.38;52.22;;;4.30;99.90;;;;;;12604631;28;20565;-79
2024/02/01 22:48:15;;;;;;;53.78;49.65;;;4.30;99.90;;;;;;12611308;28;20074;-80
2024/02/01 22:54:23;;;;;;;54.90;50.10;;;4.40;99.90;;;;;;12617567;28;20083;-79
2024/02/01 23:00:26;;;;;;;55.22;50.85;;;4.30;99.90;;;;;;12596716;28;20087;-82
2024/02/01 23:06:28;;;;;;;56.47;52.28;;;4.40;99.90;;;;;;12592265;28;20497;-78
2024/02/01 23:12:31;;;;;;;57.85;53.65;;;4.40;99.90;;;;;;12597176;28;20056;-79
2024/02/01 23:18:32;;;;;;;54.92;50.92;;;4.40;99.90;;;;;;12597562;28;20092;-79
2024/02/01 23:24:36;;;;;;;60.30;55.97;;;4.50;99.90;;;;;;12615571;28;20563;-80
2024/02/01 23:30:38;;;;;;;59.15;54.78;;;4.40;99.90;;;;;;12598892;28;20048;-81
2024/02/01 23:36:40;;;;;;;58.47;53.95;;;4.50;99.90;;;;;;12600090;28;20059;-81
2024/02/01 23:42:42;;;;;;;59.75;55.15;;;4.60;99.90;;;;;;12607195;28;20553;-80
2024/02/01 23:48:44;;;;;;;62.30;57.67;;;4.60;99.90;;;;;;12571147;28;20044;-80
2024/02/01 23:54:46;;;;;;;67.57;62.83;;;4.60;99.90;;;;;;12568173;28;20056;-81
